Time;durP1;ratioP1;P1;durP2;ratioP2;P2;SDS_P1;SDS_P2;PMS_P1;PMS_P2;Temp;Humidity;BMP_temperature;BMP_pressure;BME280_temperature;BME280_humidity;BME280_pressure;Samples;Min_cycle;Max_cycle;Signal;HPM_P1;HPM_P2
2021/06/28 00:00:33;;;;;;;1.48;1.48;;;24.70;65.30;;;;;;5096111;28;20043;-78
2021/06/28 00:02:59;;;;;;;1.63;1.52;;;24.80;65.30;;;;;;5095914;28;20020;-77
2021/06/28 00:05:26;;;;;;;1.42;1.42;;;24.70;65.20;;;;;;5095900;28;20382;-77
2021/06/28 00:07:53;;;;;;;2.70;1.88;;;24.70;66.20;;;;;;5095807;28;20116;-78
2021/06/28 00:10:25;;;;;;;1.65;1.50;;;24.70;66.30;;;;;;5095927;28;20032;-78
2021/06/28 00:12:52;;;;;;;2.17;1.40;;;24.70;65.50;;;;;;5095527;28;20025;-77
2021/06/28 00:15:22;;;;;;;1.30;1.20;;;24.60;65.60;;;;;;5095466;28;20032;-78
2021/06/28 00:17:48;;;;;;;4.38;1.52;;;24.60;65.80;;;;;;5095195;28;20034;-78
2021/06/28 00:20:15;;;;;;;1.23;1.20;;;24.60;65.90;;;;;;5077447;28;20023;-78
2021/06/28 00:22:41;;;;;;;1.27;1.27;;;24.60;66.00;;;;;;5095471;28;20020;-78
2021/06/28 00:25:10;;;;;;;1.60;1.50;;;24.60;66.10;;;;;;5095403;28;20040;-78
2021/06/28 00:27:40;;;;;;;3.95;1.15;;;24.60;65.70;;;;;;5095168;28;20031;-78
2021/06/28 00:30:08;;;;;;;2.03;1.08;;;24.60;65.70;;;;;;5094512;28;20044;-78
2021/06/28 00:32:35;;;;;;;2.85;1.88;;;24.60;65.70;;;;;;5076362;28;20028;-78
2021/06/28 00:35:02;;;;;;;1.85;1.20;;;24.60;65.60;;;;;;5094460;28;20482;-78
2021/06/28 00:37:29;;;;;;;3.13;1.40;;;24.60;65.40;;;;;;5094499;28;20047;-77
2021/06/28 00:39:55;;;;;;;1.30;1.30;;;24.60;65.50;;;;;;5077083;28;20103;-78
2021/06/28 00:42:24;;;;;;;3.17;1.38;;;24.60;65.60;;;;;;5095169;28;20016;-78
2021/06/28 00:44:50;;;;;;;3.13;1.30;;;24.60;65.60;;;;;;5077024;28;20367;-78
2021/06/28 00:47:16;;;;;;;1.42;1.27;;;24.50;65.50;;;;;;5094968;28;20020;-78
2021/06/28 00:49:42;;;;;;;1.10;1.10;;;24.40;65.50;;;;;;5094977;28;20027;-78
2021/06/28 00:52:09;;;;;;;3.08;1.38;;;24.50;65.80;;;;;;5094917;28;20470;-78
2021/06/28 00:54:35;;;;;;;1.40;1.30;;;24.50;65.70;;;;;;5094943;28;20386;-78
2021/06/28 00:57:02;;;;;;;2.85;1.50;;;24.40;65.70;;;;;;5094922;28;20025;-78
2021/06/28 00:59:28;;;;;;;2.22;1.60;;;24.40;65.50;;;;;;5094939;28;20019;-78
2021/06/28 01:01:54;;;;;;;2.67;1.20;;;24.40;65.70;;;;;;5094867;28;20450;-78
2021/06/28 01:04:20;;;;;;;4.10;1.35;;;24.30;65.60;;;;;;5076718;28;20069;-78
2021/06/28 01:06:46;;;;;;;2.83;1.40;;;24.30;65.80;;;;;;5094677;28;20385;-78
2021/06/28 01:09:12;;;;;;;5.65;1.40;;;24.30;66.00;;;;;;5076402;28;20028;-79
2021/06/28 01:11:38;;;;;;;1.52;1.42;;;24.30;65.90;;;;;;5094577;28;20077;-78
2021/06/28 01:14:04;;;;;;;2.22;1.48;;;24.30;65.80;;;;;;5076327;28;20399;-78
2021/06/28 01:16:31;;;;;;;2.67;1.30;;;24.40;65.70;;;;;;5094157;28;20028;-78
2021/06/28 01:18:57;;;;;;;2.30;1.25;;;24.40;65.50;;;;;;5094449;28;20024;-78
2021/06/28 01:21:26;;;;;;;1.42;1.33;;;24.40;65.50;;;;;;5094415;28;20024;-78
2021/06/28 01:23:52;;;;;;;1.63;1.52;;;24.40;65.40;;;;;;5094077;28;20064;-78
2021/06/28 01:26:18;;;;;;;2.05;1.40;;;24.40;65.50;;;;;;5094030;28;20028;-78
2021/06/28 01:28:44;;;;;;;1.02;1.02;;;24.40;65.40;;;;;;5076072;28;20489;-78
2021/06/28 01:31:12;;;;;;;1.65;1.55;;;24.40;65.70;;;;;;5094000;28;20541;-78
2021/06/28 01:33:39;;;;;;;1.30;1.30;;;24.30;65.70;;;;;;5093962;28;20031;-78
2021/06/28 01:36:05;;;;;;;2.55;1.27;;;24.30;65.80;;;;;;5093610;28;20028;-78
2021/06/28 01:38:31;;;;;;;2.90;1.30;;;24.30;65.80;;;;;;5094174;28;20390;-78
2021/06/28 01:40:57;;;;;;;2.13;1.20;;;24.30;65.60;;;;;;5075692;28;20027;-78
2021/06/28 01:43:24;;;;;;;1.58;1.48;;;24.40;65.70;;;;;;5094038;28;20107;-78
2021/06/28 01:45:51;;;;;;;3.90;1.30;;;24.40;65.60;;;;;;5075428;28;20024;-78
2021/06/28 01:48:17;;;;;;;3.85;1.10;;;24.30;65.60;;;;;;5093989;28;20486;-78
2021/06/28 01:50:43;;;;;;;6.80;1.30;;;24.30;65.90;;;;;;5093771;28;20028;-78
2021/06/28 01:53:09;;;;;;;1.70;1.42;;;24.30;65.90;;;;;;5093915;28;20032;-78
2021/06/28 01:55:36;;;;;;;1.45;1.10;;;24.30;66.00;;;;;;5075160;28;20393;-78
2021/06/28 01:58:04;;;;;;;2.35;1.50;;;24.30;65.80;;;;;;5075703;28;20024;-78
2021/06/28 02:00:36;;;;;;;3.60;1.15;;;24.30;65.80;;;;;;5093620;28;20057;-78
2021/06/28 02:03:15;;;;;;;3.20;1.55;;;24.30;67.30;;;;;;5093660;28;20024;-78
2021/06/28 02:05:44;;;;;;;1.33;1.23;;;24.20;67.70;;;;;;5093110;28;20025;-78
2021/06/28 02:08:12;;;;;;;2.40;1.23;;;24.20;67.80;;;;;;5075383;28;20378;-78
2021/06/28 02:10:46;;;;;;;1.40;1.30;;;24.20;67.20;;;;;;5075556;28;20020;-78
2021/06/28 02:13:11;;;;;;;5.35;1.35;;;24.10;67.10;;;;;;5075403;28;20436;-78
2021/06/28 02:15:37;;;;;;;5.97;1.55;;;24.10;67.80;;;;;;5093053;28;20032;-78
2021/06/28 02:18:03;;;;;;;4.85;1.48;;;24.10;67.70;;;;;;5093209;28;20069;-78
2021/06/28 02:20:30;;;;;;;1.40;1.27;;;24.10;67.30;;;;;;5093391;28;20111;-78
2021/06/28 02:23:32;;;;;;;3.45;1.10;;;24.10;67.30;;;;;;5093325;28;20024;-77
2021/06/28 02:26:06;;;;;;;6.72;1.42;;;24.10;67.10;;;;;;5092474;28;20405;-78
2021/06/28 02:28:35;;;;;;;1.48;1.38;;;24.10;67.00;;;;;;5093289;28;20023;-78
2021/06/28 02:31:02;;;;;;;1.60;1.50;;;24.10;67.10;;;;;;5074938;28;20047;-78
2021/06/28 02:33:28;;;;;;;1.35;1.25;;;24.10;67.60;;;;;;5074843;28;20020;-78
2021/06/28 02:35:54;;;;;;;3.80;1.25;;;24.10;67.50;;;;;;5092769;28;20031;-78
2021/06/28 02:38:21;;;;;;;1.48;1.38;;;24.10;67.40;;;;;;5075280;28;20107;-78
2021/06/28 02:40:47;;;;;;;1.48;1.38;;;24.10;67.50;;;;;;5093179;28;20031;-78
2021/06/28 02:43:13;;;;;;;1.50;1.40;;;24.10;67.80;;;;;;5093286;28;20020;-77
2021/06/28 02:45:39;;;;;;;1.75;1.58;;;24.10;67.30;;;;;;5092616;28;20040;-78
2021/06/28 02:48:05;;;;;;;1.25;1.25;;;24.00;68.00;;;;;;5074781;28;20536;-78
2021/06/28 02:50:31;;;;;;;2.67;1.35;;;23.90;68.00;;;;;;5092946;28;20035;-78
2021/06/28 02:52:57;;;;;;;1.85;1.42;;;23.90;68.30;;;;;;5080572;28;20389;-78
2021/06/28 02:55:23;;;;;;;1.58;1.30;;;24.00;68.30;;;;;;5099596;28;20389;-78
2021/06/28 02:57:49;;;;;;;1.70;1.60;;;24.00;67.90;;;;;;5099687;28;20016;-78
2021/06/28 03:00:17;;;;;;;2.05;1.30;;;23.90;68.10;;;;;;5099510;28;20473;-78
2021/06/28 03:02:43;;;;;;;1.80;1.70;;;23.90;68.10;;;;;;5099645;28;20012;-78
2021/06/28 03:05:10;;;;;;;3.15;1.27;;;23.90;68.30;;;;;;5081281;28;20362;-78
2021/06/28 03:07:37;;;;;;;2.42;1.15;;;23.90;68.50;;;;;;5099366;28;20016;-78
2021/06/28 03:10:05;;;;;;;1.30;1.20;;;23.90;69.10;;;;;;5099514;28;20020;-78
2021/06/28 03:12:31;;;;;;;1.50;1.40;;;24.00;68.20;;;;;;5081373;28;20019;-78
2021/06/28 03:14:57;;;;;;;1.75;1.65;;;24.00;68.60;;;;;;5081159;28;20523;-78
2021/06/28 03:17:23;;;;;;;3.40;1.38;;;23.90;68.70;;;;;;5099607;28;20016;-78
2021/06/28 03:19:49;;;;;;;1.63;1.52;;;23.90;68.70;;;;;;5099553;28;20031;-78
2021/06/28 03:22:16;;;;;;;1.88;1.38;;;23.90;68.70;;;;;;5099335;28;20024;-78
2021/06/28 03:24:42;;;;;;;3.05;1.33;;;23.90;68.60;;;;;;5099413;28;20015;-78
2021/06/28 03:27:08;;;;;;;2.15;1.25;;;23.80;68.80;;;;;;5099251;28;20164;-78
2021/06/28 03:29:36;;;;;;;4.60;1.50;;;23.80;68.90;;;;;;5099308;28;20048;-78
2021/06/28 03:32:02;;;;;;;2.42;1.27;;;23.80;69.20;;;;;;5099262;28;20024;-78
2021/06/28 03:34:28;;;;;;;5.07;1.27;;;23.80;69.00;;;;;;5099485;28;20039;-78
2021/06/28 03:36:54;;;;;;;1.63;1.52;;;23.70;69.40;;;;;;5099259;28;20028;-78
2021/06/28 03:39:20;;;;;;;6.25;1.83;;;23.80;69.20;;;;;;5099335;28;20051;-78
2021/06/28 03:41:45;;;;;;;1.33;1.30;;;23.90;69.00;;;;;;5081085;28;20497;-78
2021/06/28 03:44:11;;;;;;;2.80;1.52;;;23.90;69.20;;;;;;5099322;28;20435;-78
2021/06/28 03:46:37;;;;;;;1.67;1.52;;;23.90;69.20;;;;;;5098924;28;20032;-78
2021/06/28 03:49:03;;;;;;;5.88;1.52;;;23.90;69.20;;;;;;5099143;28;20023;-78
2021/06/28 03:51:29;;;;;;;6.18;1.60;;;23.90;69.40;;;;;;5098999;28;20039;-78
2021/06/28 03:53:55;;;;;;;1.30;1.30;;;23.90;69.20;;;;;;5080983;28;20660;-78
2021/06/28 03:56:21;;;;;;;1.58;1.48;;;23.90;69.10;;;;;;5098712;28;20039;-78
2021/06/28 03:58:47;;;;;;;1.67;1.50;;;23.90;69.10;;;;;;5099081;28;20028;-78
2021/06/28 04:01:13;;;;;;;4.57;1.77;;;23.90;69.40;;;;;;5098833;28;20106;-78
2021/06/28 04:03:39;;;;;;;1.20;1.20;;;23.90;69.50;;;;;;5096053;28;20028;-78
2021/06/28 04:06:06;;;;;;;1.95;1.85;;;23.90;69.50;;;;;;5095622;28;20074;-78
2021/06/28 04:08:33;;;;;;;1.42;1.30;;;24.00;69.70;;;;;;5077427;28;20042;-78
2021/06/28 04:10:59;;;;;;;1.60;1.50;;;23.90;69.80;;;;;;5095799;28;20017;-78
2021/06/28 04:13:25;;;;;;;1.60;1.50;;;24.00;69.80;;;;;;5094761;28;20035;-78
2021/06/28 04:15:51;;;;;;;6.15;1.40;;;24.00;70.10;;;;;;5094358;28;20028;-78
2021/06/28 04:18:17;;;;;;;1.88;1.67;;;24.00;70.40;;;;;;5095326;28;20111;-78
2021/06/28 04:20:43;;;;;;;1.95;1.75;;;23.90;70.60;;;;;;5095830;28;20052;-78
2021/06/28 04:23:12;;;;;;;1.25;1.25;;;24.00;70.70;;;;;;5095016;28;20067;-78
2021/06/28 04:25:38;;;;;;;2.85;1.60;;;24.00;70.70;;;;;;5094519;28;20032;-78
2021/06/28 04:28:04;;;;;;;1.45;1.35;;;24.10;70.90;;;;;;5095132;28;20025;-78
2021/06/28 04:30:30;;;;;;;1.67;1.60;;;24.10;70.80;;;;;;5094856;28;20074;-78
2021/06/28 04:33:03;;;;;;;3.05;1.35;;;24.10;70.80;;;;;;5095382;28;20020;-78
2021/06/28 04:35:29;;;;;;;1.50;1.40;;;24.20;70.80;;;;;;5087986;28;20024;-78
2021/06/28 04:37:56;;;;;;;2.30;1.55;;;24.20;70.70;;;;;;5091048;28;20047;-78
2021/06/28 04:40:24;;;;;;;1.80;1.40;;;24.30;70.70;;;;;;5076508;28;20032;-78
2021/06/28 04:42:50;;;;;;;2.70;1.60;;;24.30;70.80;;;;;;5094578;28;20103;-78
2021/06/28 04:45:18;;;;;;;3.33;1.85;;;24.40;71.00;;;;;;5095075;28;20106;-78
2021/06/28 04:47:44;;;;;;;3.70;1.67;;;24.40;71.00;;;;;;5095104;28;20067;-78
2021/06/28 04:50:11;;;;;;;1.77;1.67;;;24.50;70.80;;;;;;5095107;28;20485;-78
2021/06/28 04:52:37;;;;;;;1.65;1.42;;;24.50;70.70;;;;;;5095129;28;20020;-78
2021/06/28 04:55:07;;;;;;;1.58;1.50;;;24.60;70.90;;;;;;5094576;28;20501;-78
2021/06/28 04:57:41;;;;;;;2.75;1.70;;;24.60;71.60;;;;;;5076028;28;20035;-78
2021/06/28 05:00:10;;;;;;;2.08;1.73;;;24.60;70.80;;;;;;5089693;28;20024;-78
2021/06/28 05:02:36;;;;;;;1.75;1.65;;;24.70;71.10;;;;;;5076542;28;20027;-78
2021/06/28 05:05:04;;;;;;;2.70;1.60;;;24.70;71.20;;;;;;5094417;28;20115;-78
2021/06/28 05:07:29;;;;;;;2.65;1.67;;;24.80;71.10;;;;;;5094657;28;20024;-78
2021/06/28 05:09:56;;;;;;;3.13;1.45;;;24.80;71.10;;;;;;5076525;28;20077;-78
2021/06/28 05:12:22;;;;;;;2.78;1.80;;;24.80;71.30;;;;;;5076446;28;20122;-78
2021/06/28 05:14:48;;;;;;;2.78;1.58;;;24.90;71.60;;;;;;5075883;28;20115;-77
2021/06/28 05:17:13;;;;;;;1.70;1.55;;;25.00;71.40;;;;;;5075718;28;20028;-77
2021/06/28 05:19:39;;;;;;;2.40;2.08;;;25.00;71.40;;;;;;5075926;28;20058;-77
2021/06/28 05:22:06;;;;;;;2.42;1.60;;;25.00;72.00;;;;;;5075978;28;20115;-75
2021/06/28 05:24:32;;;;;;;1.58;1.52;;;25.10;71.60;;;;;;5094098;28;20027;-75
2021/06/28 05:26:58;;;;;;;4.32;1.50;;;25.10;71.40;;;;;;5075941;28;20123;-75
2021/06/28 05:29:24;;;;;;;1.50;1.40;;;25.20;71.20;;;;;;5093806;28;20438;-75
2021/06/28 05:31:49;;;;;;;1.63;1.52;;;25.20;70.80;;;;;;5093944;28;20378;-75
2021/06/28 05:34:16;;;;;;;6.32;1.58;;;25.30;71.20;;;;;;5075549;28;20111;-75
2021/06/28 05:36:41;;;;;;;1.92;1.83;;;25.30;71.10;;;;;;5093775;28;20028;-75
2021/06/28 05:39:07;;;;;;;1.88;1.77;;;25.30;71.30;;;;;;5075926;28;20028;-75
2021/06/28 05:41:33;;;;;;;1.70;1.60;;;25.40;70.70;;;;;;5093843;28;20051;-75
2021/06/28 05:43:59;;;;;;;1.98;1.45;;;25.50;70.30;;;;;;5075460;28;20025;-75
2021/06/28 05:46:25;;;;;;;2.13;1.80;;;25.60;69.90;;;;;;5093681;28;20059;-75
2021/06/28 05:48:51;;;;;;;1.98;1.80;;;25.60;69.80;;;;;;5093624;28;20053;-75
2021/06/28 05:51:19;;;;;;;2.72;1.60;;;25.70;70.10;;;;;;5093552;28;20040;-75
2021/06/28 05:53:46;;;;;;;1.83;1.67;;;25.80;70.20;;;;;;5093623;28;20018;-75
2021/06/28 05:56:12;;;;;;;2.15;1.60;;;25.80;70.30;;;;;;5093536;28;20137;-75
2021/06/28 05:58:38;;;;;;;1.70;1.60;;;25.80;70.20;;;;;;5093468;28;20457;-75
2021/06/28 06:01:04;;;;;;;6.15;2.47;;;25.80;71.20;;;;;;5093527;28;20020;-74
2021/06/28 06:03:30;;;;;;;3.85;1.85;;;25.80;70.80;;;;;;5075037;28;20027;-74
2021/06/28 06:05:56;;;;;;;1.50;1.42;;;25.90;71.20;;;;;;5093070;28;20024;-75
2021/06/28 06:08:25;;;;;;;6.90;1.83;;;25.90;71.80;;;;;;5074980;28;20386;-75
2021/06/28 06:10:55;;;;;;;3.78;1.75;;;26.00;70.80;;;;;;5092902;28;20056;-75
2021/06/28 06:13:22;;;;;;;1.83;1.60;;;26.10;70.40;;;;;;5093445;28;20020;-75
2021/06/28 06:15:49;;;;;;;1.48;1.48;;;26.10;70.00;;;;;;5093188;28;20417;-74
2021/06/28 06:18:15;;;;;;;3.72;1.67;;;26.20;70.50;;;;;;5075087;28;20016;-74
2021/06/28 06:20:41;;;;;;;1.77;1.52;;;26.20;71.40;;;;;;5092780;28;20051;-75
2021/06/28 06:23:07;;;;;;;3.05;1.63;;;26.20;69.50;;;;;;5074644;28;20042;-75
2021/06/28 06:25:33;;;;;;;1.95;1.85;;;26.30;70.60;;;;;;5092935;28;20028;-75
2021/06/28 06:27:59;;;;;;;2.75;1.48;;;26.30;69.30;;;;;;5092627;28;20026;-75
2021/06/28 06:30:25;;;;;;;1.60;1.40;;;26.40;69.50;;;;;;5092975;28;20051;-75
2021/06/28 06:32:51;;;;;;;4.35;2.10;;;26.40;69.10;;;;;;5092493;28;20427;-75
2021/06/28 06:35:21;;;;;;;1.48;1.38;;;26.50;68.80;;;;;;5074768;28;20494;-75
2021/06/28 06:37:47;;;;;;;4.72;1.65;;;26.50;68.70;;;;;;5093012;28;20020;-75
2021/06/28 06:40:13;;;;;;;1.17;1.17;;;26.50;68.50;;;;;;5092826;28;20028;-75
2021/06/28 06:42:39;;;;;;;5.82;1.42;;;26.50;66.80;;;;;;5092853;28;20016;-75
2021/06/28 06:45:06;;;;;;;1.45;1.35;;;26.50;67.30;;;;;;5092836;28;20024;-75
2021/06/28 06:47:32;;;;;;;1.23;1.20;;;26.60;66.60;;;;;;5092890;28;20020;-75
2021/06/28 06:49:57;;;;;;;4.20;1.20;;;26.50;66.20;;;;;;5074563;28;20028;-75
2021/06/28 06:52:23;;;;;;;8.02;1.50;;;26.60;67.10;;;;;;5092124;28;20382;-75
2021/06/28 06:54:49;;;;;;;3.90;1.20;;;26.60;68.20;;;;;;5092702;28;20024;-75
2021/06/28 06:57:15;;;;;;;5.10;1.50;;;26.70;68.00;;;;;;5092640;28;20031;-75
2021/06/28 06:59:40;;;;;;;1.52;1.20;;;26.70;64.90;;;;;;5072412;28;20493;-76
2021/06/28 07:02:07;;;;;;;1.00;1.00;;;26.70;63.20;;;;;;5085436;28;20039;-75
2021/06/28 07:04:33;;;;;;;1.95;1.27;;;26.80;59.30;;;;;;5082389;28;20021;-75
2021/06/28 07:07:00;;;;;;;1.25;1.20;;;26.90;58.00;;;;;;5082221;28;20047;-75
2021/06/28 07:09:28;;;;;;;2.05;1.08;;;27.00;58.40;;;;;;5085663;28;20039;-75
2021/06/28 07:11:54;;;;;;;1.63;1.30;;;27.00;57.40;;;;;;5070955;28;20359;-75
2021/06/28 07:14:20;;;;;;;8.70;1.00;;;27.10;57.60;;;;;;5082125;28;20063;-75
2021/06/28 07:16:52;;;;;;;6.28;1.20;;;27.10;57.10;;;;;;5076686;28;20105;-75
2021/06/28 07:19:17;;;;;;;3.75;1.20;;;27.30;56.00;;;;;;5078730;28;20020;-75
2021/06/28 07:21:44;;;;;;;2.65;1.35;;;27.40;55.70;;;;;;5087334;28;20046;-75
2021/06/28 07:24:10;;;;;;;1.35;1.10;;;27.50;56.20;;;;;;5085526;28;20016;-75
2021/06/28 07:26:36;;;;;;;2.08;1.23;;;27.50;56.40;;;;;;5084872;28;20028;-75
2021/06/28 07:29:02;;;;;;;2.38;1.23;;;27.50;57.80;;;;;;5087588;28;20033;-75
2021/06/28 07:31:28;;;;;;;1.55;1.45;;;27.50;58.10;;;;;;5085559;28;20046;-75
2021/06/28 07:33:54;;;;;;;3.20;1.40;;;27.60;58.60;;;;;;5086328;28;20078;-75
2021/06/28 07:36:20;;;;;;;2.13;1.38;;;27.60;58.70;;;;;;5085631;28;20418;-74
2021/06/28 07:38:46;;;;;;;4.05;1.30;;;27.70;58.90;;;;;;5084746;28;20020;-75
2021/06/28 07:41:12;;;;;;;1.83;1.15;;;27.70;58.60;;;;;;5075393;28;20588;-75
2021/06/28 07:43:38;;;;;;;1.42;1.40;;;27.70;58.80;;;;;;5063372;28;20024;-75
2021/06/28 07:46:04;;;;;;;3.72;1.40;;;27.70;59.10;;;;;;5064278;28;20478;-75
2021/06/28 07:48:31;;;;;;;3.33;1.40;;;27.70;59.50;;;;;;5086832;28;20102;-75
2021/06/28 07:50:56;;;;;;;1.85;1.23;;;27.80;60.00;;;;;;5074982;28;20040;-75
2021/06/28 07:53:22;;;;;;;1.48;1.38;;;27.80;60.00;;;;;;5059077;28;21449;-75
2021/06/28 07:55:48;;;;;;;1.40;1.20;;;27.80;58.60;;;;;;5089535;28;20020;-75
2021/06/28 07:58:14;;;;;;;2.70;1.10;;;27.90;56.70;;;;;;5091708;28;20016;-75
2021/06/28 08:00:40;;;;;;;2.28;1.42;;;28.00;57.90;;;;;;5085741;28;20016;-75
2021/06/28 08:03:07;;;;;;;1.30;1.30;;;28.00;58.90;;;;;;5088442;28;20060;-75
2021/06/28 08:05:34;;;;;;;1.45;1.30;;;28.10;56.40;;;;;;5084266;28;20035;-75
2021/06/28 08:08:01;;;;;;;2.05;1.83;;;28.10;56.10;;;;;;5087929;28;20066;-76
2021/06/28 08:10:29;;;;;;;3.28;1.60;;;28.20;55.80;;;;;;5072317;28;20029;-76
2021/06/28 08:12:54;;;;;;;2.40;1.80;;;28.30;56.30;;;;;;5064588;28;20025;-77
2021/06/28 08:15:20;;;;;;;1.80;1.70;;;28.40;56.50;;;;;;5082445;28;20081;-77
2021/06/28 08:17:47;;;;;;;1.92;1.83;;;28.40;55.00;;;;;;5068729;28;20532;-77
2021/06/28 08:20:14;;;;;;;5.43;1.83;;;28.40;56.00;;;;;;5080939;28;20428;-77
2021/06/28 08:22:41;;;;;;;1.35;1.33;;;28.40;54.90;;;;;;5085872;28;20028;-78
2021/06/28 08:25:08;;;;;;;2.88;1.60;;;28.40;54.70;;;;;;5081814;28;20063;-77
2021/06/28 08:27:34;;;;;;;2.08;1.45;;;28.40;56.80;;;;;;5081695;28;20020;-77
2021/06/28 08:30:00;;;;;;;1.30;1.20;;;28.40;55.60;;;;;;5083163;28;20085;-77
2021/06/28 08:32:26;;;;;;;1.52;1.42;;;28.50;56.30;;;;;;5084267;28;20043;-77
2021/06/28 08:34:55;;;;;;;2.88;1.17;;;28.50;54.80;;;;;;5090623;28;20019;-77
2021/06/28 08:37:21;;;;;;;1.40;1.30;;;28.60;55.50;;;;;;5064487;28;20528;-77
2021/06/28 08:39:46;;;;;;;1.23;1.23;;;28.90;55.80;;;;;;5082615;28;20028;-77
2021/06/28 08:42:12;;;;;;;1.02;1.02;;;28.90;55.30;;;;;;5086140;28;20020;-77
2021/06/28 08:44:38;;;;;;;3.22;1.40;;;28.90;52.70;;;;;;5085298;28;20020;-77
2021/06/28 08:47:05;;;;;;;1.20;1.20;;;28.80;54.90;;;;;;5085272;28;20029;-78
2021/06/28 08:49:32;;;;;;;4.53;1.30;;;28.80;55.40;;;;;;5066592;28;20039;-77
2021/06/28 08:51:58;;;;;;;1.65;1.55;;;28.90;55.40;;;;;;5088854;28;20082;-76
2021/06/28 08:54:25;;;;;;;1.63;1.17;;;28.80;55.80;;;;;;5086056;28;20466;-76
2021/06/28 08:56:51;;;;;;;2.60;2.35;;;28.70;56.00;;;;;;5085256;28;20028;-76
2021/06/28 08:59:18;;;;;;;2.00;1.75;;;28.70;56.40;;;;;;5090689;28;20065;-76
2021/06/28 09:01:43;;;;;;;3.33;2.20;;;28.70;56.20;;;;;;5090573;28;20097;-76
2021/06/28 09:04:09;;;;;;;2.83;1.17;;;28.60;56.70;;;;;;5087859;28;20490;-76
2021/06/28 09:06:37;;;;;;;2.45;1.33;;;28.60;57.80;;;;;;5087251;28;20024;-76
2021/06/28 09:09:09;;;;;;;3.92;1.52;;;28.70;54.50;;;;;;5083143;28;20111;-76
2021/06/28 09:11:41;;;;;;;1.48;1.33;;;28.70;53.30;;;;;;5084556;28;20024;-76
2021/06/28 09:14:08;;;;;;;3.25;1.50;;;28.70;54.60;;;;;;5080255;28;20608;-76
2021/06/28 09:16:36;;;;;;;3.47;1.80;;;28.70;56.10;;;;;;5088668;28;20032;-76
2021/06/28 09:19:12;;;;;;;4.32;2.20;;;28.70;55.90;;;;;;5085222;28;20069;-76
2021/06/28 09:21:45;;;;;;;3.35;1.92;;;28.70;57.20;;;;;;5082504;28;20040;-76
2021/06/28 09:24:30;;;;;;;5.10;1.63;;;28.80;56.20;;;;;;5088836;28;20020;-76
2021/06/28 09:27:09;;;;;;;4.53;1.45;;;28.80;56.00;;;;;;5076893;28;20111;-76
2021/06/28 09:29:49;;;;;;;3.90;1.27;;;28.80;54.60;;;;;;5085279;28;20049;-75
2021/06/28 09:32:17;;;;;;;3.60;1.70;;;29.00;54.80;;;;;;5066449;28;20396;-76
2021/06/28 09:34:48;;;;;;;4.43;1.60;;;29.00;55.30;;;;;;5086416;28;20028;-76
2021/06/28 09:37:17;;;;;;;2.53;1.30;;;29.00;55.10;;;;;;5084717;28;20039;-76
2021/06/28 09:39:48;;;;;;;2.45;1.52;;;29.00;55.20;;;;;;5070983;28;20031;-76
2021/06/28 09:42:16;;;;;;;1.67;1.50;;;29.00;54.00;;;;;;5085389;28;20070;-76
2021/06/28 09:44:56;;;;;;;1.48;1.40;;;29.00;55.00;;;;;;5066951;28;20021;-76
2021/06/28 09:47:29;;;;;;;2.00;1.80;;;29.10;54.40;;;;;;5082124;28;20486;-75
2021/06/28 09:50:06;;;;;;;2.13;1.58;;;29.20;53.70;;;;;;5084302;28;20370;-76
2021/06/28 09:52:37;;;;;;;1.75;1.48;;;29.40;52.00;;;;;;5084835;28;20039;-76
2021/06/28 09:55:12;;;;;;;2.17;1.48;;;29.30;53.00;;;;;;5087113;28;20051;-76
2021/06/28 09:57:38;;;;;;;4.68;1.60;;;29.30;54.40;;;;;;5081897;28;20043;-76
2021/06/28 10:00:38;;;;;;;2.13;1.30;;;29.30;54.10;;;;;;5086883;28;20028;-76
2021/06/28 10:03:05;;;;;;;3.90;1.67;;;29.30;54.50;;;;;;5072163;28;20537;-76
2021/06/28 10:06:05;;;;;;;2.35;1.17;;;29.30;54.10;;;;;;5080632;28;20028;-76
2021/06/28 10:08:50;;;;;;;1.98;1.80;;;29.40;54.50;;;;;;5080537;28;20016;-76
2021/06/28 10:11:32;;;;;;;1.67;1.55;;;29.30;53.30;;;;;;5056865;28;20163;-76
2021/06/28 10:14:06;;;;;;;1.70;1.60;;;29.50;52.50;;;;;;5070051;28;20558;-76
2021/06/28 10:16:38;;;;;;;1.35;1.33;;;29.50;52.10;;;;;;5079328;28;20041;-76
2021/06/28 10:19:08;;;;;;;3.20;1.65;;;29.50;52.30;;;;;;5083796;28;20008;-76
2021/06/28 10:21:35;;;;;;;3.35;1.80;;;29.50;54.50;;;;;;5081066;28;20512;-76
2021/06/28 10:24:02;;;;;;;3.15;1.95;;;29.60;53.50;;;;;;5082111;28;20012;-76
2021/06/28 10:26:28;;;;;;;1.42;1.33;;;29.70;54.70;;;;;;5079551;28;20651;-76
2021/06/28 10:28:56;;;;;;;2.20;1.40;;;29.80;53.70;;;;;;5079965;28;20028;-76
2021/06/28 10:31:22;;;;;;;7.63;2.47;;;29.80;53.70;;;;;;5075200;28;20048;-76
2021/06/28 10:34:00;;;;;;;2.15;1.70;;;29.90;53.00;;;;;;5075583;28;20024;-76
2021/06/28 10:36:36;;;;;;;2.40;1.70;;;30.00;53.20;;;;;;5076258;28;20050;-76
2021/06/28 10:39:06;;;;;;;6.22;1.80;;;30.00;51.10;;;;;;5076127;28;20078;-76
2021/06/28 10:41:44;;;;;;;2.05;1.88;;;29.90;52.40;;;;;;5063010;28;20020;-76
2021/06/28 10:44:15;;;;;;;2.78;1.75;;;30.00;52.80;;;;;;5079194;28;20016;-76
2021/06/28 10:46:43;;;;;;;6.25;1.95;;;30.00;52.90;;;;;;5079018;28;20424;-76
2021/06/28 10:49:11;;;;;;;2.78;1.52;;;30.20;54.70;;;;;;5076277;28;20056;-76
2021/06/28 10:51:49;;;;;;;2.35;2.05;;;30.30;53.20;;;;;;5060757;28;20032;-76
2021/06/28 10:54:37;;;;;;;3.33;1.80;;;30.40;52.50;;;;;;5075478;28;20363;-76
2021/06/28 10:57:05;;;;;;;1.83;1.73;;;30.40;52.30;;;;;;5080949;28;20054;-76
2021/06/28 10:59:40;;;;;;;2.03;1.92;;;30.40;53.00;;;;;;5078040;28;20058;-76
2021/06/28 11:02:08;;;;;;;2.08;1.75;;;30.50;54.50;;;;;;5066421;28;20424;-76
2021/06/28 11:04:37;;;;;;;2.33;2.15;;;30.60;53.30;;;;;;5085383;28;20032;-76
2021/06/28 11:07:05;;;;;;;3.28;2.08;;;30.70;52.40;;;;;;5075923;28;20103;-76
2021/06/28 11:09:48;;;;;;;1.83;1.73;;;30.70;52.60;;;;;;5058369;28;20032;-78
2021/06/28 11:12:22;;;;;;;5.72;1.77;;;31.10;52.40;;;;;;5085059;28;20110;-78
2021/06/28 11:15:35;;;;;;;2.30;2.10;;;31.40;50.80;;;;;;5089695;28;20554;-78
2021/06/28 11:18:01;;;;;;;3.92;1.80;;;31.50;49.80;;;;;;5013606;28;20042;-78
2021/06/28 11:20:37;;;;;;;2.33;1.77;;;31.60;50.00;;;;;;4997384;28;20597;-78
2021/06/28 11:23:16;;;;;;;2.58;1.70;;;31.80;50.30;;;;;;5053150;28;20032;-78
2021/06/28 11:25:52;;;;;;;1.90;1.80;;;31.70;49.60;;;;;;5085964;28;20016;-78
2021/06/28 11:28:31;;;;;;;6.95;2.25;;;31.80;48.80;;;;;;5090926;28;20129;-78
2021/06/28 11:31:02;;;;;;;1.70;1.60;;;31.80;48.70;;;;;;5091999;28;20059;-78
2021/06/28 11:33:37;;;;;;;3.97;1.73;;;32.00;50.70;;;;;;5073118;28;20033;-78
2021/06/28 11:36:05;;;;;;;1.65;1.55;;;32.20;50.70;;;;;;5087450;28;20043;-78
2021/06/28 11:38:34;;;;;;;2.13;2.03;;;32.30;49.70;;;;;;5087863;28;20016;-77
2021/06/28 11:41:21;;;;;;;2.38;2.17;;;32.40;48.40;;;;;;5081162;28;20029;-78
2021/06/28 11:44:04;;;;;;;4.53;2.10;;;32.50;48.70;;;;;;5081215;28;20158;-78
2021/06/28 11:46:30;;;;;;;2.22;2.13;;;32.50;46.50;;;;;;5088941;28;20057;-76
2021/06/28 11:49:06;;;;;;;1.90;1.80;;;32.60;47.00;;;;;;5063848;28;20032;-78
2021/06/28 11:51:46;;;;;;;2.47;2.22;;;32.70;49.60;;;;;;5081506;28;20024;-78
2021/06/28 11:54:24;;;;;;;3.03;1.90;;;32.80;50.20;;;;;;5079173;28;20060;-78
2021/06/28 11:56:51;;;;;;;4.55;1.90;;;33.00;50.20;;;;;;5079988;28;20073;-78
2021/06/28 11:59:19;;;;;;;2.67;1.92;;;33.10;50.60;;;;;;5069270;28;20020;-78
2021/06/28 12:01:57;;;;;;;2.25;2.08;;;33.10;48.10;;;;;;5086274;28;20018;-78
2021/06/28 12:04:28;;;;;;;1.67;1.67;;;33.20;46.90;;;;;;5087698;28;20059;-78
2021/06/28 12:06:56;;;;;;;2.13;2.03;;;33.10;47.80;;;;;;5070567;28;20024;-75
2021/06/28 12:09:23;;;;;;;2.53;2.13;;;33.10;48.30;;;;;;5087490;28;20326;-76
2021/06/28 12:11:53;;;;;;;2.42;1.88;;;33.20;47.50;;;;;;5087578;28;20036;-75
2021/06/28 12:14:46;;;;;;;3.20;2.00;;;33.30;48.30;;;;;;5087161;28;20020;-77
2021/06/28 12:17:13;;;;;;;1.83;1.77;;;33.50;47.10;;;;;;5066924;28;20054;-78
2021/06/28 12:19:41;;;;;;;4.82;1.90;;;33.70;48.60;;;;;;5083706;28;20086;-77
2021/06/28 12:22:15;;;;;;;3.60;1.90;;;33.80;47.80;;;;;;5083312;28;20051;-75
2021/06/28 12:24:43;;;;;;;1.90;1.80;;;33.80;45.50;;;;;;5070469;28;20012;-76
2021/06/28 12:27:15;;;;;;;3.55;1.85;;;33.80;46.20;;;;;;5082940;28;20736;-75
2021/06/28 12:29:40;;;;;;;;;;;33.90;45.00;;;;;;5082141;28;20102;-75
2021/06/28 12:32:12;;;;;;;1.73;1.63;;;33.90;46.40;;;;;;5075226;28;20497;-77
2021/06/28 12:34:39;;;;;;;2.55;1.73;;;34.10;46.10;;;;;;5075099;28;20016;-77
2021/06/28 12:37:06;;;;;;;2.60;2.00;;;34.20;44.60;;;;;;5086486;28;20124;-76
2021/06/28 12:39:32;;;;;;;3.10;1.50;;;34.20;44.40;;;;;;5068268;28;20362;-75
2021/06/28 12:42:19;;;;;;;1.55;1.55;;;34.20;45.40;;;;;;5068149;28;20114;-75
2021/06/28 12:44:45;;;;;;;1.85;1.75;;;34.30;43.70;;;;;;5084641;28;20043;-76
2021/06/28 12:47:15;;;;;;;1.70;1.60;;;34.40;44.80;;;;;;5083269;28;20024;-76
2021/06/28 12:49:48;;;;;;;1.80;1.65;;;34.50;44.20;;;;;;5080472;28;20579;-76
2021/06/28 12:52:27;;;;;;;2.15;2.00;;;34.50;43.00;;;;;;5085117;28;20024;-76
2021/06/28 12:55:26;;;;;;;1.83;1.65;;;34.50;43.80;;;;;;5080764;28;20167;-76